Time;durP1;ratioP1;P1;durP2;ratioP2;P2;SDS_P1;SDS_P2;PMS_P1;PMS_P2;Temp;Humidity;BMP_temperature;BMP_pressure;BME280_temperature;BME280_humidity;BME280_pressure;Samples;Min_cycle;Max_cycle;Signal;HPM_P1;HPM_P2
2021/12/07 00:01:19;;;;;;;6.53;4.25;;;2.00;1.00;;;;;;5054560;28;20025;-83
2021/12/07 00:03:45;;;;;;;3.72;2.83;;;2.10;1.00;;;;;;5055728;28;20029;-82
2021/12/07 00:06:11;;;;;;;3.78;2.80;;;2.10;1.00;;;;;;5056420;28;20798;-82
2021/12/07 00:08:40;;;;;;;4.93;3.25;;;2.20;1.00;;;;;;5055905;28;20021;-82
2021/12/07 00:11:06;;;;;;;7.13;4.07;;;2.20;1.00;;;;;;5054738;28;20045;-82
2021/12/07 00:13:36;;;;;;;5.75;3.50;;;2.20;1.00;;;;;;5053664;28;20025;-83
2021/12/07 00:16:03;;;;;;;5.40;3.63;;;2.10;1.00;;;;;;5054566;28;20571;-83
2021/12/07 00:18:29;;;;;;;3.38;2.75;;;2.10;1.00;;;;;;5053743;28;20032;-82
2021/12/07 00:20:54;;;;;;;4.60;2.90;;;2.20;1.00;;;;;;5054858;28;20025;-83
2021/12/07 00:23:20;;;;;;;5.32;3.78;;;2.10;1.00;;;;;;5055088;28;20484;-82
2021/12/07 00:25:46;;;;;;;4.30;2.72;;;2.20;1.00;;;;;;5054638;28;20064;-83
2021/12/07 00:28:12;;;;;;;3.90;2.90;;;2.10;1.00;;;;;;5054494;28;20022;-83
2021/12/07 00:30:38;;;;;;;4.47;3.10;;;2.10;1.00;;;;;;5054604;28;20032;-82
2021/12/07 00:33:29;;;;;;;4.47;3.03;;;2.00;1.00;;;;;;5054283;28;20383;-82
2021/12/07 00:35:51;;;;;;;5.22;3.55;;;2.10;1.00;;;;;;5053219;28;20036;-82
2021/12/07 00:38:20;;;;;;;5.65;3.58;;;2.20;1.00;;;;;;5053759;28;20787;-83
2021/12/07 00:40:48;;;;;;;5.57;3.20;;;2.20;1.00;;;;;;5053929;28;20036;-82
2021/12/07 00:43:15;;;;;;;6.40;3.17;;;2.20;1.00;;;;;;5053876;28;20021;-82
2021/12/07 00:45:45;;;;;;;5.78;3.58;;;2.20;1.00;;;;;;5054091;28;20021;-82
2021/12/07 00:48:12;;;;;;;4.90;3.42;;;2.20;1.00;;;;;;5054861;28;20017;-83
2021/12/07 00:50:41;;;;;;;5.95;4.00;;;2.10;1.00;;;;;;5054299;28;20474;-82
2021/12/07 00:53:07;;;;;;;5.30;3.60;;;2.20;1.00;;;;;;5054896;28;20392;-82
2021/12/07 00:55:37;;;;;;;5.22;3.25;;;2.20;1.00;;;;;;5057137;28;20037;-83
2021/12/07 00:58:12;;;;;;;5.97;3.85;;;2.20;1.00;;;;;;5057556;28;20064;-82
2021/12/07 01:00:38;;;;;;;6.30;4.07;;;2.20;1.00;;;;;;5055705;28;20116;-82
2021/12/07 01:03:04;;;;;;;5.55;3.75;;;2.20;1.00;;;;;;5056794;28;20048;-82
2021/12/07 01:05:33;;;;;;;6.00;3.72;;;2.20;1.00;;;;;;5057374;28;20047;-82
2021/12/07 01:24:53;;;;;;;7.10;4.55;;;2.30;1.00;;;;;;5055308;28;20508;-82
2021/12/07 01:27:20;;;;;;;6.30;4.35;;;2.40;1.00;;;;;;5056487;28;20021;-83
2021/12/07 01:29:53;;;;;;;6.82;4.40;;;2.40;1.00;;;;;;5056525;28;20468;-82
2021/12/07 01:32:34;;;;;;;8.02;4.45;;;2.40;1.00;;;;;;5056717;28;20025;-82
2021/12/07 01:45:54;;;;;;;7.47;4.68;;;2.10;1.00;;;;;;5056412;28;20029;-82
2021/12/07 02:01:54;;;;;;;8.55;5.35;;;2.20;1.00;;;;;;5035763;28;20083;-82
2021/12/07 02:04:20;;;;;;;9.52;5.07;;;2.40;1.00;;;;;;5035933;28;20025;-82
2021/12/07 02:06:45;;;;;;;7.55;4.60;;;2.30;1.00;;;;;;5035563;28;20109;-82
2021/12/07 02:09:12;;;;;;;9.05;4.50;;;2.30;1.00;;;;;;5035673;28;20053;-82
2021/12/07 02:11:48;;;;;;;9.23;4.97;;;2.40;1.00;;;;;;5035837;28;20025;-83
2021/12/07 02:14:17;;;;;;;10.25;5.13;;;2.60;1.00;;;;;;5036220;28;20021;-83
2021/12/07 02:16:45;;;;;;;8.60;5.30;;;2.40;1.00;;;;;;5035755;28;20068;-82
2021/12/07 02:19:11;;;;;;;9.00;4.82;;;2.40;1.00;;;;;;5035561;28;20101;-82
2021/12/07 02:21:36;;;;;;;8.80;5.55;;;2.60;1.00;;;;;;5035292;28;20052;-82
2021/12/07 02:24:02;;;;;;;10.60;5.57;;;2.60;1.00;;;;;;5035499;28;20374;-82
2021/12/07 02:26:28;;;;;;;12.65;5.80;;;2.70;1.00;;;;;;5035385;28;20033;-82
2021/12/07 02:28:57;;;;;;;10.57;5.38;;;2.80;1.00;;;;;;5034562;28;20021;-82
2021/12/07 02:31:22;;;;;;;9.57;5.10;;;2.90;1.00;;;;;;5035781;28;20025;-81
2021/12/07 02:33:48;;;;;;;11.50;4.88;;;2.90;1.00;;;;;;5034974;28;20115;-81
2021/12/07 02:36:14;;;;;;;9.25;4.65;;;2.80;1.00;;;;;;5035153;28;20551;-82
2021/12/07 02:38:40;;;;;;;8.82;4.03;;;2.90;1.00;;;;;;5035070;28;20044;-82
2021/12/07 02:41:06;;;;;;;7.75;4.13;;;3.00;1.00;;;;;;5035074;28;20112;-82
2021/12/07 02:43:33;;;;;;;9.32;4.70;;;3.10;1.00;;;;;;5035460;28;20022;-82
2021/12/07 02:45:58;;;;;;;11.88;4.18;;;3.20;1.00;;;;;;5035404;28;20099;-82
2021/12/07 02:48:24;;;;;;;11.68;4.28;;;3.30;1.00;;;;;;5035525;28;20389;-82
2021/12/07 02:50:50;;;;;;;11.65;5.28;;;3.30;1.00;;;;;;5035459;28;20032;-82
2021/12/07 02:53:19;;;;;;;10.45;4.47;;;3.40;1.00;;;;;;5035384;28;20017;-82
2021/12/07 02:55:44;;;;;;;9.45;5.03;;;3.30;1.00;;;;;;5034617;28;20102;-82
2021/12/07 02:58:10;;;;;;;14.77;4.75;;;3.30;1.00;;;;;;5034734;28;20469;-82
2021/12/07 03:00:44;;;;;;;12.10;4.40;;;3.30;1.00;;;;;;5034615;28;20017;-82
2021/12/07 03:03:12;;;;;;;8.63;4.00;;;3.40;1.00;;;;;;5038339;28;20024;-82
2021/12/07 03:27:16;;;;;;;2.53;0.77;;;4.10;1.00;;;;;;5054401;28;20031;-82
2021/12/07 03:29:42;;;;;;;4.70;0.65;;;4.20;1.00;;;;;;5054714;28;20017;-82
2021/12/07 03:32:07;;;;;;;5.60;0.45;;;4.10;1.00;;;;;;5054742;28;20036;-82
2021/12/07 03:34:33;;;;;;;5.45;0.70;;;4.30;1.00;;;;;;5054207;28;20052;-82
2021/12/07 03:37:57;;;;;;;9.35;1.02;;;4.30;1.00;;;;;;5054536;28;20045;-83
2021/12/07 03:40:23;;;;;;;3.10;0.60;;;4.30;1.00;;;;;;5034384;28;20033;-82
2021/12/07 03:46:14;;;;;;;5.93;1.10;;;4.40;1.00;;;;;;5034248;28;20079;-82
2021/12/07 03:48:41;;;;;;;5.10;1.43;;;4.50;1.00;;;;;;5051269;28;20025;-82
2021/12/07 03:51:07;;;;;;;3.35;0.70;;;4.40;1.00;;;;;;5054242;28;20099;-82
2021/12/07 03:53:33;;;;;;;4.40;0.50;;;4.30;1.00;;;;;;5053790;28;20377;-82
2021/12/07 03:55:59;;;;;;;0.63;0.40;;;4.10;1.00;;;;;;5053952;28;20036;-82
2021/12/07 03:58:25;;;;;;;5.70;0.70;;;4.00;1.00;;;;;;5053656;28;20065;-82
2021/12/07 04:00:51;;;;;;;3.80;0.43;;;3.90;1.00;;;;;;5053862;28;20049;-82
2021/12/07 04:03:19;;;;;;;3.80;0.35;;;3.60;1.00;;;;;;5054130;28;20036;-82
2021/12/07 04:05:52;;;;;;;11.55;1.33;;;3.50;1.00;;;;;;5053865;28;20098;-82
2021/12/07 04:08:25;;;;;;;5.93;0.57;;;3.30;1.00;;;;;;5054257;28;20147;-82
2021/12/07 04:10:53;;;;;;;26.55;2.58;;;3.20;1.00;;;;;;5053884;28;20496;-82
2021/12/07 04:13:18;;;;;;;3.15;0.60;;;3.00;1.00;;;;;;5054051;28;20096;-83
2021/12/07 04:15:44;;;;;;;6.45;0.40;;;3.00;1.00;;;;;;5053724;28;20500;-82
2021/12/07 04:18:10;;;;;;;3.47;0.70;;;2.90;1.00;;;;;;5053552;28;20361;-82
2021/12/07 04:20:37;;;;;;;4.32;1.10;;;2.90;1.00;;;;;;5053710;28;20103;-82
2021/12/07 04:23:05;;;;;;;5.88;0.50;;;3.00;1.00;;;;;;5053700;28;20029;-82
2021/12/07 04:25:30;;;;;;;2.15;0.82;;;3.00;1.00;;;;;;5053683;28;20106;-82
2021/12/07 04:27:57;;;;;;;4.63;0.60;;;3.00;1.00;;;;;;5054140;28;20412;-81
2021/12/07 04:30:35;;;;;;;2.38;0.40;;;3.10;1.00;;;;;;5057719;28;20480;-81
2021/12/07 04:33:04;;;;;;;3.15;0.75;;;2.90;1.00;;;;;;5057971;28;20025;-82
2021/12/07 04:35:30;;;;;;;1.38;0.32;;;2.90;1.00;;;;;;5057267;28;20048;-82
2021/12/07 04:37:56;;;;;;;4.85;0.93;;;2.70;1.00;;;;;;5057564;28;20059;-81
2021/12/07 04:40:24;;;;;;;2.63;0.80;;;2.70;1.00;;;;;;5056891;28;20021;-82
2021/12/07 04:42:51;;;;;;;1.90;0.57;;;2.70;1.00;;;;;;5057127;28;20044;-82
2021/12/07 04:45:34;;;;;;;3.58;0.55;;;3.00;1.00;;;;;;5057034;28;20029;-82
2021/12/07 04:59:00;;;;;;;2.72;0.50;;;3.20;1.00;;;;;;5037565;28;20072;-81
2021/12/07 05:01:26;;;;;;;2.13;0.40;;;3.50;1.00;;;;;;5037323;28;20029;-78
2021/12/07 05:03:56;;;;;;;1.90;0.98;;;3.20;1.00;;;;;;5037079;28;20051;-78
2021/12/07 05:06:26;;;;;;;8.52;1.00;;;3.00;1.00;;;;;;5037290;28;20025;-78
2021/12/07 05:08:58;;;;;;;8.02;0.88;;;3.00;1.00;;;;;;5036880;28;20024;-78
2021/12/07 05:11:32;;;;;;;4.00;1.48;;;2.80;1.00;;;;;;5037339;28;20087;-78
2021/12/07 05:23:55;;;;;;;12.48;1.85;;;2.80;1.00;;;;;;5037225;28;20025;-78
2021/12/07 05:25:13;;;;;;;14.68;2.45;;;2.60;1.00;;;;;;5036604;28;20084;-78
2021/12/07 05:38:30;;;;;;;9.00;1.30;;;3.00;1.00;;;;;;5045481;28;20096;-78
2021/12/07 05:41:19;;;;;;;4.68;1.13;;;3.00;1.00;;;;;;5035438;28;20029;-78
2021/12/07 05:43:46;;;;;;;7.28;1.13;;;3.00;1.00;;;;;;5036176;28;20059;-78
2021/12/07 05:46:18;;;;;;;5.50;0.70;;;3.10;1.00;;;;;;5053793;28;20036;-77
2021/12/07 05:48:44;;;;;;;5.22;0.68;;;3.10;1.00;;;;;;5054995;28;20388;-78
2021/12/07 05:51:09;;;;;;;4.97;0.85;;;2.90;1.00;;;;;;5049502;28;20779;-78
2021/12/07 05:53:35;;;;;;;6.63;0.80;;;2.80;1.00;;;;;;5041744;28;20021;-78
2021/12/07 05:56:03;;;;;;;7.93;0.93;;;2.70;1.00;;;;;;5042708;28;20096;-78
2021/12/07 05:58:28;;;;;;;10.68;1.25;;;2.50;1.00;;;;;;5035663;28;20060;-78
2021/12/07 06:00:57;;;;;;;4.10;0.77;;;2.60;1.00;;;;;;5035578;28;20030;-78
2021/12/07 06:03:25;;;;;;;4.85;0.73;;;2.40;1.00;;;;;;5035292;28;20018;-78
2021/12/07 06:05:51;;;;;;;3.95;0.60;;;2.30;1.00;;;;;;5035503;28;20496;-78
2021/12/07 06:08:17;;;;;;;4.45;0.55;;;2.30;1.00;;;;;;5035802;28;20366;-78
2021/12/07 06:10:43;;;;;;;6.97;0.80;;;2.20;1.00;;;;;;5035966;28;20060;-78
2021/12/07 06:13:08;;;;;;;1.33;0.70;;;2.30;1.00;;;;;;5035708;28;20354;-78
2021/12/07 06:15:36;;;;;;;5.03;1.30;;;2.10;1.00;;;;;;5035063;28;20041;-78
2021/12/07 06:18:03;;;;;;;6.65;1.98;;;2.00;1.00;;;;;;5035252;28;20021;-78
2021/12/07 06:20:29;;;;;;;5.95;1.50;;;2.10;1.00;;;;;;5035568;28;20025;-78
2021/12/07 06:22:55;;;;;;;6.90;2.42;;;2.00;1.00;;;;;;5035557;28;20363;-78
2021/12/07 06:25:20;;;;;;;9.05;1.88;;;2.40;1.00;;;;;;5034900;28;20035;-78
2021/12/07 06:27:46;;;;;;;4.85;1.58;;;2.70;1.00;;;;;;5034762;28;20057;-78
2021/12/07 06:30:13;;;;;;;1.98;0.88;;;2.80;1.00;;;;;;5035310;28;20024;-78
2021/12/07 06:32:39;;;;;;;5.63;1.17;;;2.70;1.00;;;;;;5046689;28;20017;-78
2021/12/07 06:35:06;;;;;;;5.82;1.30;;;2.70;1.00;;;;;;5054645;28;20075;-77
2021/12/07 06:37:32;;;;;;;4.90;0.70;;;2.60;1.00;;;;;;5054756;28;20028;-78
2021/12/07 06:39:57;;;;;;;7.00;1.20;;;2.60;1.00;;;;;;5054791;28;20031;-78
2021/12/07 06:42:23;;;;;;;7.45;1.00;;;2.50;1.00;;;;;;5054124;28;20096;-82
2021/12/07 06:44:48;;;;;;;8.45;1.10;;;2.50;1.00;;;;;;5049995;28;20033;-81
2021/12/07 06:47:14;;;;;;;3.75;0.82;;;2.40;1.00;;;;;;5033236;28;20018;-81
2021/12/07 06:49:39;;;;;;;4.93;1.17;;;2.30;1.00;;;;;;5034650;28;20026;-82
2021/12/07 06:52:05;;;;;;;9.27;1.20;;;2.20;1.00;;;;;;5033919;28;20025;-82
2021/12/07 06:54:31;;;;;;;13.23;1.52;;;2.20;1.00;;;;;;5033563;28;20045;-82
2021/12/07 06:56:57;;;;;;;6.50;1.00;;;2.20;1.00;;;;;;5044384;28;20029;-82
2021/12/07 06:59:22;;;;;;;6.40;1.23;;;2.10;1.00;;;;;;5047084;28;20028;-82
2021/12/07 07:01:49;;;;;;;8.45;1.38;;;2.30;1.00;;;;;;5054391;28;20025;-81
2021/12/07 07:04:15;;;;;;;5.47;1.70;;;2.20;1.00;;;;;;5054588;28;20029;-81
2021/12/07 07:06:42;;;;;;;6.97;2.20;;;2.10;1.00;;;;;;5054569;28;20040;-82
2021/12/07 07:09:12;;;;;;;9.63;2.10;;;2.10;1.00;;;;;;5053762;28;20017;-81
2021/12/07 07:11:38;;;;;;;8.10;2.20;;;2.10;1.00;;;;;;5035985;28;20023;-82
2021/12/07 07:14:04;;;;;;;10.13;2.53;;;2.10;1.00;;;;;;5034398;28;20026;-82
2021/12/07 07:16:30;;;;;;;8.20;2.00;;;2.10;1.00;;;;;;5034338;28;20124;-82
2021/12/07 07:18:56;;;;;;;6.72;1.77;;;2.10;1.00;;;;;;5034675;28;20057;-81
2021/12/07 07:21:23;;;;;;;12.02;2.33;;;2.00;1.00;;;;;;5034767;28;20018;-82
2021/12/07 07:23:50;;;;;;;7.25;1.70;;;2.00;1.00;;;;;;5034868;28;20473;-82
2021/12/07 07:26:15;;;;;;;6.75;1.60;;;2.10;1.00;;;;;;5034395;28;20465;-81
2021/12/07 07:28:41;;;;;;;4.95;1.10;;;2.20;1.00;;;;;;5034569;28;20027;-81
2021/12/07 07:31:09;;;;;;;6.43;1.20;;;2.10;1.00;;;;;;5034566;28;20029;-82
2021/12/07 07:33:36;;;;;;;3.53;1.00;;;2.00;1.00;;;;;;5034381;28;20036;-82
2021/12/07 07:36:01;;;;;;;7.70;1.15;;;2.10;1.00;;;;;;5034063;28;20048;-82
2021/12/07 07:38:27;;;;;;;4.63;1.15;;;2.10;1.00;;;;;;5034332;28;20025;-82
2021/12/07 07:40:53;;;;;;;5.50;1.15;;;1.90;1.00;;;;;;5033803;28;20536;-82
2021/12/07 07:43:19;;;;;;;5.50;1.00;;;1.80;1.00;;;;;;5032783;28;20021;-82
2021/12/07 07:45:46;;;;;;;26.20;3.78;;;1.80;1.00;;;;;;5034015;28;20029;-82
2021/12/07 07:48:13;;;;;;;20.65;2.90;;;1.80;1.00;;;;;;5034372;28;20091;-81
2021/12/07 07:50:39;;;;;;;5.28;1.25;;;1.80;1.00;;;;;;5034060;28;20017;-81
2021/12/07 07:53:06;;;;;;;5.35;0.98;;;1.80;1.00;;;;;;5034081;28;20025;-81
2021/12/07 07:55:32;;;;;;;4.85;1.20;;;1.70;1.00;;;;;;5034608;28;20120;-82
2021/12/07 07:57:58;;;;;;;6.25;1.35;;;1.80;1.00;;;;;;5034246;28;20053;-81
2021/12/07 08:00:24;;;;;;;5.93;1.30;;;1.80;1.00;;;;;;5034062;28;20076;-82
2021/12/07 08:02:49;;;;;;;8.68;1.70;;;1.80;1.00;;;;;;5034193;28;20556;-82
2021/12/07 08:05:16;;;;;;;6.68;1.90;;;1.90;1.00;;;;;;5038511;28;20060;-82
2021/12/07 08:07:46;;;;;;;4.32;1.88;;;1.90;1.00;;;;;;5051330;28;20461;-83
2021/12/07 08:10:13;;;;;;;;;;;2.30;1.00;;;;;;5059058;28;20760;-82
2021/12/07 08:12:39;;;;;;;5.05;1.50;;;2.20;1.00;;;;;;5052616;28;20651;-82
2021/12/07 08:15:05;;;;;;;6.78;1.42;;;2.30;1.00;;;;;;5048737;28;20101;-82
2021/12/07 08:17:31;;;;;;;9.68;1.60;;;2.40;1.00;;;;;;5044243;28;20033;-83
2021/12/07 08:19:57;;;;;;;11.18;2.55;;;2.70;1.00;;;;;;5057847;28;20098;-82
2021/12/07 08:22:23;;;;;;;5.80;2.63;;;2.80;1.00;;;;;;5050118;28;20032;-82
2021/12/07 08:24:49;;;;;;;9.77;2.85;;;2.80;1.00;;;;;;5057938;28;20044;-82
2021/12/07 08:27:15;;;;;;;6.25;2.38;;;2.70;1.00;;;;;;5057849;28;20017;-82
2021/12/07 08:29:40;;;;;;;4.22;1.60;;;2.70;1.00;;;;;;5057763;28;20021;-82
2021/12/07 08:32:06;;;;;;;5.80;1.40;;;2.70;1.00;;;;;;5057916;28;20540;-82
2021/12/07 08:34:32;;;;;;;8.45;1.90;;;2.70;1.00;;;;;;5056209;28;20064;-82
2021/12/07 08:36:58;;;;;;;5.93;1.60;;;2.50;1.00;;;;;;5057686;28;20029;-82
2021/12/07 08:39:23;;;;;;;7.93;1.42;;;2.60;1.00;;;;;;5051203;28;20030;-83
2021/12/07 08:41:49;;;;;;;4.78;1.58;;;2.60;1.00;;;;;;5045624;28;20057;-82
2021/12/07 08:44:14;;;;;;;5.45;1.60;;;2.50;1.00;;;;;;5038011;28;20027;-82
2021/12/07 08:46:40;;;;;;;10.27;1.50;;;2.60;1.00;;;;;;5036749;28;20341;-82
2021/12/07 08:49:06;;;;;;;6.10;1.40;;;2.50;1.00;;;;;;5055574;28;20028;-81
2021/12/07 08:51:31;;;;;;;8.27;1.77;;;2.60;1.00;;;;;;5056198;28;20025;-82
2021/12/07 08:54:15;;;;;;;8.52;1.73;;;2.60;1.00;;;;;;5056364;28;20119;-82
2021/12/07 08:59:40;;;;;;;9.68;1.70;;;2.60;1.00;;;;;;5057016;28;20039;-82
2021/12/07 09:02:07;;;;;;;7.68;2.28;;;2.60;1.00;;;;;;5057411;28;20021;-82
2021/12/07 09:04:33;;;;;;;7.25;1.67;;;2.60;1.00;;;;;;5057019;28;20479;-82
2021/12/07 09:06:59;;;;;;;9.63;1.98;;;2.70;1.40;;;;;;5057121;28;20151;-81
2021/12/07 09:09:25;;;;;;;6.95;2.35;;;2.80;6.50;;;;;;5056301;28;20108;-84
2021/12/07 09:11:54;;;;;;;11.77;2.35;;;3.00;17.20;;;;;;5057487;28;20048;-82
2021/12/07 09:14:20;;;;;;;6.75;2.15;;;3.10;18.80;;;;;;5056804;28;20448;-82
2021/12/07 09:16:46;;;;;;;8.85;1.90;;;3.20;23.20;;;;;;5056320;28;20035;-83
2021/12/07 09:19:12;;;;;;;7.60;2.20;;;3.10;25.70;;;;;;5056900;28;20029;-82
2021/12/07 09:21:38;;;;;;;8.10;2.45;;;3.20;30.70;;;;;;5056152;28;20116;-82
2021/12/07 09:24:06;;;;;;;9.02;2.65;;;3.30;35.70;;;;;;5056657;28;20406;-82
2021/12/07 09:26:32;;;;;;;5.43;2.38;;;3.40;39.30;;;;;;5056588;28;20464;-82
2021/12/07 09:28:58;;;;;;;5.60;2.33;;;3.30;39.80;;;;;;5056577;28;20032;-82
2021/12/07 09:31:24;;;;;;;8.00;2.75;;;3.50;52.90;;;;;;5055381;28;20013;-83
2021/12/07 09:33:49;;;;;;;8.48;3.35;;;3.60;59.40;;;;;;5056267;28;20049;-82
2021/12/07 09:36:15;;;;;;;9.82;2.88;;;3.60;61.00;;;;;;5055257;28;20490;-82
2021/12/07 09:38:42;;;;;;;8.50;2.50;;;3.60;62.10;;;;;;5055147;28;20021;-82
2021/12/07 09:41:09;;;;;;;7.75;2.65;;;3.70;64.70;;;;;;5055428;28;20047;-82
2021/12/07 09:43:36;;;;;;;6.82;2.63;;;3.70;69.90;;;;;;5056451;28;20114;-82
2021/12/07 09:46:06;;;;;;;8.55;2.72;;;3.80;74.90;;;;;;5056531;28;20445;-82
2021/12/07 09:48:31;;;;;;;10.38;2.92;;;3.80;74.40;;;;;;5056752;28;20025;-82
2021/12/07 09:50:58;;;;;;;10.93;2.90;;;3.80;84.40;;;;;;5056645;28;20075;-82
2021/12/07 09:53:25;;;;;;;10.85;3.00;;;3.80;86.00;;;;;;5056939;28;20021;-82
2021/12/07 09:55:51;;;;;;;9.32;2.80;;;3.90;90.00;;;;;;5054725;28;20082;-82
2021/12/07 09:58:17;;;;;;;9.88;2.67;;;3.90;90.80;;;;;;5055867;28;20049;-83
2021/12/07 10:00:44;;;;;;;6.43;2.33;;;4.00;90.40;;;;;;5056012;28;20017;-82
2021/12/07 10:03:11;;;;;;;9.13;2.75;;;4.00;93.20;;;;;;5056185;28;20017;-82
2021/12/07 10:05:39;;;;;;;11.20;2.40;;;4.10;94.10;;;;;;5055678;28;20025;-82
2021/12/07 10:08:05;;;;;;;9.52;2.50;;;4.10;96.60;;;;;;5055957;28;20365;-82
2021/12/07 10:10:43;;;;;;;12.77;2.63;;;4.10;97.70;;;;;;5055547;28;20024;-82
2021/12/07 10:13:10;;;;;;;9.68;2.25;;;4.20;99.90;;;;;;5055511;28;20084;-82
2021/12/07 10:15:37;;;;;;;9.52;2.30;;;4.30;99.90;;;;;;5055389;28;20041;-83
2021/12/07 10:18:16;;;;;;;12.40;2.40;;;4.30;99.90;;;;;;5055382;28;20033;-83
2021/12/07 10:20:55;;;;;;;4.68;2.35;;;4.30;99.90;;;;;;5055293;28;20024;-82
2021/12/07 10:23:25;;;;;;;7.97;2.42;;;4.30;99.90;;;;;;5054855;28;20100;-83
2021/12/07 10:25:56;;;;;;;7.30;2.50;;;4.50;99.90;;;;;;5054777;28;20338;-82
2021/12/07 10:28:42;;;;;;;7.30;2.50;;;4.50;99.90;;;;;;5047548;28;20033;-82
2021/12/07 10:31:49;;;;;;;9.55;2.03;;;4.60;99.90;;;;;;5035294;28;20028;-82
2021/12/07 10:34:21;;;;;;;11.52;2.55;;;4.70;99.90;;;;;;5012773;28;20045;-82
2021/12/07 10:36:52;;;;;;;11.05;2.50;;;4.70;99.90;;;;;;4996533;28;20041;-82
2021/12/07 10:39:32;;;;;;;8.68;2.20;;;4.80;99.90;;;;;;5024395;28;20057;-83
2021/12/07 10:42:00;;;;;;;;;;;4.90;99.90;;;;;;5040373;28;20676;-83
2021/12/07 10:44:31;;;;;;;13.65;2.63;;;5.00;99.90;;;;;;5054894;28;19944;-82
2021/12/07 10:47:20;;;;;;;9.30;2.03;;;5.00;99.90;;;;;;5054628;28;20028;-82
2021/12/07 10:49:58;;;;;;;9.07;2.83;;;5.30;99.90;;;;;;5056035;28;20025;-82
2021/12/07 10:52:29;;;;;;;11.82;2.40;;;5.30;99.90;;;;;;5054982;28;20025;-83
2021/12/07 10:55:16;;;;;;;10.70;2.08;;;5.30;99.90;;;;;;5054881;28;20031;-82
2021/12/07 10:57:54;;;;;;;9.55;2.45;;;5.30;99.90;;;;;;5053256;28;20021;-83
2021/12/07 11:00:22;;;;;;;9.27;2.50;;;5.30;99.90;;;;;;5042016;28;20481;-83
2021/12/07 11:02:56;;;;;;;13.88;3.03;;;5.60;99.90;;;;;;5044631;28;20472;-82
2021/12/07 11:05:46;;;;;;;14.23;2.70;;;6.00;99.90;;;;;;5047837;28;20021;-83
2021/12/07 11:08:29;;;;;;;;;;;6.30;99.90;;;;;;5039149;28;20119;-83
2021/12/07 11:10:55;;;;;;;12.68;2.45;;;6.50;99.90;;;;;;5041879;28;20007;-83
2021/12/07 11:13:34;;;;;;;11.60;2.97;;;6.70;99.90;;;;;;5041459;28;20072;-83
2021/12/07 11:16:06;;;;;;;12.32;2.95;;;6.70;99.90;;;;;;5042400;28;20522;-83
2021/12/07 11:18:40;;;;;;;20.20;3.78;;;6.80;99.90;;;;;;5050645;28;20009;-83
2021/12/07 11:21:14;;;;;;;9.57;3.83;;;6.80;99.90;;;;;;5038748;28;20108;-83
2021/12/07 11:23:48;;;;;;;15.48;3.17;;;6.90;99.90;;;;;;5032227;28;20025;-83
2021/12/07 11:31:39;;;;;;;9.30;2.95;;;6.50;99.90;;;;;;5053250;28;20102;-83
2021/12/07 11:34:09;;;;;;;11.50;3.15;;;6.50;99.90;;;;;;5053191;28;20082;-83
2021/12/07 11:36:39;;;;;;;12.20;3.17;;;6.60;99.90;;;;;;5051965;28;20036;-83
2021/12/07 11:39:22;;;;;;;7.18;3.10;;;6.80;99.90;;;;;;5052377;28;20069;-83
2021/12/07 11:41:51;;;;;;;11.25;3.10;;;7.00;99.90;;;;;;5052943;28;20032;-83
2021/12/07 11:44:18;;;;;;;8.65;3.40;;;6.90;55.60;;;;;;5049864;28;20104;-83
2021/12/07 11:46:48;;;;;;;9.82;3.33;;;6.80;49.70;;;;;;5052882;28;20032;-83
2021/12/07 11:49:18;;;;;;;9.13;3.35;;;6.70;38.70;;;;;;5052773;28;20052;-82
2021/12/07 11:51:46;;;;;;;7.70;3.40;;;6.70;66.60;;;;;;5052802;28;20036;-83
2021/12/07 11:54:14;;;;;;;9.93;2.90;;;6.70;33.00;;;;;;5052880;28;20029;-83
2021/12/07 11:56:41;;;;;;;11.23;2.97;;;6.70;67.20;;;;;;5052767;28;20061;-84
2021/12/07 11:59:10;;;;;;;8.68;2.95;;;6.70;51.40;;;;;;5052613;28;20029;-84
2021/12/07 12:01:37;;;;;;;6.95;2.90;;;6.70;26.90;;;;;;5052909;28;20507;-83
2021/12/07 12:04:03;;;;;;;14.23;3.00;;;6.70;9.70;;;;;;5052907;28;20031;-83
2021/12/07 12:06:29;;;;;;;10.40;3.10;;;6.70;12.00;;;;;;5052920;28;20029;-84
2021/12/07 12:08:56;;;;;;;10.95;3.58;;;6.70;1.00;;;;;;5052944;28;20021;-83
2021/12/07 12:11:34;;;;;;;6.70;2.92;;;6.80;1.00;;;;;;5052660;28;20465;-83
2021/12/07 12:14:30;;;;;;;8.15;3.83;;;6.70;12.00;;;;;;5052716;28;20068;-84
2021/12/07 12:17:09;;;;;;;8.88;3.00;;;6.60;1.00;;;;;;5045911;28;20113;-83
2021/12/07 12:19:53;;;;;;;8.15;2.92;;;6.70;1.00;;;;;;5046493;28;20021;-83
2021/12/07 12:22:39;;;;;;;10.77;2.75;;;6.70;1.00;;;;;;5049440;28;20017;-84
2021/12/07 12:25:09;;;;;;;7.80;3.10;;;6.60;1.00;;;;;;5052311;28;20025;-84
2021/12/07 12:27:36;;;;;;;11.57;3.38;;;6.60;1.00;;;;;;5052484;28;20393;-84
2021/12/07 12:30:18;;;;;;;10.15;2.85;;;6.50;1.00;;;;;;5052067;28;20040;-84
2021/12/07 12:32:47;;;;;;;9.00;3.40;;;6.70;1.00;;;;;;5052396;28;20036;-84
2021/12/07 12:35:13;;;;;;;8.68;3.13;;;6.70;1.00;;;;;;5052763;28;20057;-84
2021/12/07 12:37:48;;;;;;;5.72;2.58;;;6.60;1.00;;;;;;5052454;28;20090;-84
2021/12/07 12:40:30;;;;;;;13.82;3.42;;;6.70;1.00;;;;;;5044433;28;20025;-84
2021/12/07 12:42:57;;;;;;;14.25;4.40;;;6.70;1.00;;;;;;5032374;28;20472;-84
2021/12/07 12:45:25;;;;;;;9.15;3.22;;;6.70;1.00;;;;;;5032404;28;20025;-84
2021/12/07 12:48:08;;;;;;;14.50;3.55;;;6.80;1.00;;;;;;5035826;28;20013;-84
2021/12/07 12:50:36;;;;;;;13.05;2.38;;;6.80;1.00;;;;;;5055303;28;20111;-84
2021/12/07 12:53:45;;;;;;;12.75;3.13;;;6.80;1.00;;;;;;5055077;28;20562;-84
2021/12/07 12:56:22;;;;;;;15.35;3.08;;;6.80;99.90;;;;;;5056002;28;20029;-85
2021/12/07 12:58:50;;;;;;;11.02;2.72;;;6.80;99.90;;;;;;5056504;28;20021;-85
2021/12/07 13:01:21;;;;;;;10.82;2.50;;;6.80;99.90;;;;;;5055884;28;20079;-84
2021/12/07 13:04:01;;;;;;;13.43;4.15;;;6.80;99.90;;;;;;5055481;28;20024;-84
2021/12/07 13:06:39;;;;;;;6.57;2.33;;;6.70;99.90;;;;;;5055630;28;20032;-84
2021/12/07 13:09:20;;;;;;;9.50;2.83;;;6.70;99.90;;;;;;5056162;28;20032;-84
2021/12/07 13:11:56;;;;;;;14.60;3.67;;;6.70;99.90;;;;;;5055622;28;20025;-84
2021/12/07 13:14:21;;;;;;;13.05;3.67;;;6.70;99.90;;;;;;5055715;28;20021;-84
2021/12/07 13:17:07;;;;;;;9.25;2.83;;;6.50;99.90;;;;;;5055797;28;20383;-84
2021/12/07 13:19:58;;;;;;;13.30;2.90;;;6.50;99.90;;;;;;5055429;28;20025;-84
2021/12/07 13:22:24;;;;;;;18.17;5.03;;;6.50;99.90;;;;;;5055279;28;20021;-84
2021/12/07 13:24:56;;;;;;;14.23;3.30;;;6.50;99.90;;;;;;5055544;28;20066;-84
2021/12/07 13:27:22;;;;;;;7.03;2.17;;;6.40;99.90;;;;;;5055438;28;20629;-84
2021/12/07 13:29:52;;;;;;;12.50;2.85;;;6.40;99.90;;;;;;5055124;28;20789;-84
2021/12/07 13:32:18;;;;;;;9.73;2.95;;;6.30;99.90;;;;;;5055597;28;20102;-84
2021/12/07 13:34:44;;;;;;;8.93;2.60;;;6.30;99.90;;;;;;5055239;28;20510;-84
2021/12/07 13:37:12;;;;;;;9.05;2.53;;;6.20;99.90;;;;;;5054916;28;20025;-84
2021/12/07 13:39:48;;;;;;;10.90;2.95;;;6.20;99.90;;;;;;5055285;28;20039;-84
2021/12/07 13:42:16;;;;;;;8.88;2.50;;;6.10;99.90;;;;;;5055091;28;20029;-84
2021/12/07 13:45:05;;;;;;;10.77;2.38;;;6.10;99.90;;;;;;5054979;28;20032;-84
2021/12/07 13:47:43;;;;;;;8.63;2.70;;;6.10;99.90;;;;;;5055071;28;20116;-84
2021/12/07 13:50:15;;;;;;;9.48;2.28;;;5.90;99.90;;;;;;5054993;28;20040;-84
2021/12/07 13:52:51;;;;;;;11.90;2.67;;;5.90;99.90;;;;;;5055356;28;20025;-84
2021/12/07 13:55:23;;;;;;;8.23;2.10;;;5.80;99.90;;;;;;5055016;28;20025;-84
2021/12/07 13:57:50;;;;;;;9.45;2.33;;;5.70;99.90;;;;;;5054882;28;20021;-84
2021/12/07 14:00:23;;;;;;;8.88;2.17;;;5.70;99.90;;;;;;5054758;28;20156;-84
2021/12/07 14:02:55;;;;;;;14.60;2.95;;;5.60;99.90;;;;;;5054216;28;20051;-84
2021/12/07 14:05:23;;;;;;;8.90;2.67;;;5.50;99.90;;;;;;5054989;28;20029;-84
2021/12/07 14:07:51;;;;;;;6.22;1.95;;;5.50;99.90;;;;;;5054621;28;20493;-83
2021/12/07 14:10:31;;;;;;;10.82;2.80;;;5.40;99.90;;;;;;5054354;28;20067;-84
2021/12/07 14:12:58;;;;;;;8.25;2.45;;;5.40;99.90;;;;;;5054599;28;20044;-84
2021/12/07 14:15:30;;;;;;;10.18;2.80;;;5.30;99.90;;;;;;5054161;28;20025;-84
2021/12/07 14:18:01;;;;;;;10.32;2.83;;;5.30;99.90;;;;;;5054354;28;20037;-84
2021/12/07 14:20:27;;;;;;;;;;;5.20;99.90;;;;;;5053601;28;20465;-84
2021/12/07 14:22:54;;;;;;;10.30;2.85;;;5.10;99.90;;;;;;5053269;28;19905;-84
2021/12/07 14:25:19;;;;;;;12.10;3.13;;;5.10;99.90;;;;;;5054401;28;20025;-84
2021/12/07 14:27:46;;;;;;;9.85;3.03;;;5.00;99.90;;;;;;5054217;28;20070;-84
2021/12/07 14:30:14;;;;;;;10.90;3.38;;;4.90;99.90;;;;;;5054085;28;20025;-83
2021/12/07 14:32:43;;;;;;;12.38;3.60;;;4.90;99.90;;;;;;5054260;28;20491;-84
2021/12/07 14:35:09;;;;;;;8.60;3.17;;;4.80;99.90;;;;;;5053914;28;20697;-83
2021/12/07 14:37:34;;;;;;;15.75;3.72;;;4.70;99.90;;;;;;5053958;28;20473;-83
2021/12/07 14:40:00;;;;;;;10.55;3.35;;;4.70;99.90;;;;;;5053907;28;20056;-84
2021/12/07 14:42:28;;;;;;;9.23;3.53;;;4.60;99.90;;;;;;5053743;28;20032;-84
2021/12/07 14:44:58;;;;;;;8.45;3.70;;;4.60;99.90;;;;;;5054201;28;20071;-83
2021/12/07 14:47:25;;;;;;;15.75;3.90;;;4.60;99.90;;;;;;5054247;28;20423;-84
2021/12/07 14:50:00;;;;;;;11.80;4.18;;;4.60;99.90;;;;;;5053841;28;20024;-84
2021/12/07 14:52:35;;;;;;;14.88;4.72;;;4.60;99.90;;;;;;5053916;28;20427;-84
2021/12/07 14:55:01;;;;;;;13.85;4.35;;;4.50;99.90;;;;;;5052653;28;20404;-84
2021/12/07 14:57:27;;;;;;;15.13;4.43;;;4.50;99.90;;;;;;5053964;28;20520;-84
2021/12/07 15:00:00;;;;;;;10.98;4.40;;;4.40;99.90;;;;;;5053704;28;20035;-84